PHO weather

Point Hope Airport
Point Hope, Alaska, United States

Public forecast

Using degrees Fahrenheit for public forecast. Weather courtesy of forecast.io.

METAR (pilot weather report)

Retrieved 2019/04/22 05:56 UTC (14 minutes ago):

PAPO 220556Z AUTO 02020G26KT 4SM BLSN BR CLR M08/M11 A2979 RMK AO2 PK WND 02029/0539 UPE0457B17E22B45E55SNB08E17 SLP089 P0000 60000 T10831106 11067 21100 58001 FZRANO

TAF (pilot weather forecast)

Closest forecast is Ralph Wien Memorial Airport, 130.1 nm (241.0 km) SE. Retrieved 2019/04/22 06:34 UTC (0 seconds ago):

TAF PAOT 220532Z 2206/2306 35017KT P6SM FEW050 SCT100 BKN200 FM222200 05018G26KT P6SM FEW050 BKN100 BKN200